Time;durP1;ratioP1;P1;durP2;ratioP2;P2;SDS_P1;SDS_P2;PMS_P1;PMS_P2;Temp;Humidity;BMP_temperature;BMP_pressure;BME280_temperature;BME280_humidity;BME280_pressure;Samples;Min_cycle;Max_cycle;Signal;HPM_P1;HPM_P2
2022/01/23 00:01:50;;;;;;;;;49.00;37.25;;;;;8.63;55.66;103151.66;4962806;28;47114;-90
2022/01/23 00:04:16;;;;;;;;;38.00;33.00;;;;;9.23;55.75;103238.72;4964736;28;45358;-92
2022/01/23 00:06:44;;;;;;;;;38.25;32.00;;;;;8.84;55.36;103184.50;4981843;28;45459;-92
2022/01/23 00:09:10;;;;;;;;;39.75;33.50;;;;;9.31;55.72;103252.91;4963535;28;45445;-88
2022/01/23 00:11:42;;;;;;;;;39.50;34.25;;;;;9.20;55.62;103236.94;4981004;28;45825;-90
2022/01/23 00:19:16;;;;;;;;;45.50;37.75;;;;;9.78;55.56;103347.06;4980053;28;45383;-89
2022/01/23 00:21:42;;;;;;;;;44.25;34.75;;;;;9.61;55.67;103307.09;4961753;28;47250;-87
2022/01/23 00:32:05;;;;;;;;;41.50;34.25;;;;;9.14;55.70;103223.59;4979539;28;45504;-87
2022/01/23 00:34:47;;;;;;;;;;;;;;;;;;;;;
2022/01/23 00:38:42;;;;;;;;;;;;;;;;;;;;;
2022/01/23 00:40:59;;;;;;;;;34.00;27.67;;;;;9.23;56.12;103250.22;4915614;28;45713;-88
2022/01/23 00:43:35;;;;;;;;;34.75;28.75;;;;;8.86;56.01;103177.44;4921767;28;45526;-88
2022/01/23 00:46:22;;;;;;;;;45.50;37.50;;;;;8.25;55.80;103069.13;4955569;28;45444;-87
2022/01/23 00:51:21;;;;;;;;;36.50;30.75;;;;;9.75;55.54;103315.09;4952188;28;45561;-87
2022/01/23 00:53:46;;;;;;;;;30.25;29.75;;;;;9.58;55.19;103292.00;4948371;28;45507;-87
2022/01/23 00:56:11;;;;;;;;;39.00;33.67;;;;;9.52;55.59;103270.69;4938505;28;45475;-84
2022/01/23 00:58:37;;;;;;;;;33.33;29.33;;;;;9.13;55.42;103210.28;4951480;28;45443;-88
2022/01/23 01:01:02;;;;;;;;;27.00;25.33;;;;;9.29;55.11;103228.97;4940694;28;45610;-85
2022/01/23 01:03:28;;;;;;;;;29.67;25.33;;;;;9.10;55.67;103205.84;4947570;28;46284;-86
2022/01/23 01:05:54;;;;;;;;;31.67;28.00;;;;;9.66;55.18;103297.34;4937179;28;45595;-90
2022/01/23 01:08:19;;;;;;;;;35.00;31.00;;;;;9.70;55.48;103305.31;4922459;28;45672;-83
2022/01/23 01:10:58;;;;;;;;;35.75;33.25;;;;;8.91;55.48;103170.34;4942027;28;45374;-81
2022/01/23 01:13:29;;;;;;;;;62.25;50.25;;;;;9.51;55.61;103267.13;4927830;28;45553;-82
2022/01/23 01:16:03;;;;;;;;;53.75;41.75;;;;;9.68;55.74;103298.22;4977854;28;45441;-81
2022/01/23 01:32:11;;;;;;;;;28.33;28.00;;;;;9.58;55.50;103291.13;4979041;28;45703;-81
2022/01/23 01:34:46;;;;;;;;;35.25;33.00;;;;;9.35;55.10;103256.47;4968883;28;46365;-81
2022/01/23 01:37:12;;;;;;;;;24.67;24.67;;;;;9.27;55.29;103246.69;4991601;28;45346;-81
2022/01/23 01:39:38;;;;;;;;;32.00;28.33;;;;;9.63;55.41;103305.31;4978834;28;45230;-81
2022/01/23 01:42:04;;;;;;;;;31.00;27.67;;;;;9.33;55.44;103247.59;4979031;28;45370;-81
2022/01/23 01:44:30;;;;;;;;;36.00;31.00;;;;;9.45;55.30;103261.78;4978271;28;45725;-81
2022/01/23 01:46:56;;;;;;;;;34.67;26.33;;;;;9.61;55.46;103302.66;4978062;28;45464;-81
2022/01/23 01:49:30;;;;;;;;;30.67;29.00;;;;;9.41;55.56;103256.47;4961163;28;45449;-81
2022/01/23 01:51:57;;;;;;;;;34.33;27.33;;;;;9.64;55.51;103291.09;4978874;28;45284;-81
2022/01/23 01:54:25;;;;;;;;;35.00;27.00;;;;;9.49;55.36;103273.34;4976528;28;46641;-81
2022/01/23 01:57:03;;;;;;;;;33.75;31.00;;;;;9.66;55.35;103286.69;4978097;28;45413;-81
2022/01/23 02:10:26;;;;;;;;;38.25;31.50;;;;;9.60;55.76;103289.31;4978638;28;45528;-80
2022/01/23 02:18:13;;;;;;;;;40.00;31.25;;;;;9.41;55.89;103244.06;4977725;28;46611;-81
2022/01/23 02:51:09;;;;;;;;;28.00;26.00;;;;;9.48;55.40;103242.28;4977630;28;45490;-80
2022/01/23 02:54:04;;;;;;;;;33.67;27.33;;;;;9.28;55.88;103207.66;4977842;28;45403;-80
2022/01/23 02:56:32;;;;;;;;;27.33;23.33;;;;;9.47;55.61;103240.50;4977187;28;45330;-80
2022/01/23 02:58:59;;;;;;;;;28.67;23.00;;;;;9.42;55.34;103234.31;4959443;28;46238;-80
2022/01/23 03:01:29;;;;;;;;;28.00;27.00;;;;;9.46;55.78;103244.97;4977505;28;45362;-81
2022/01/23 03:04:03;;;;;;;;;28.67;27.33;;;;;9.43;55.60;103238.72;4959045;28;45320;-80
2022/01/23 03:14:19;;;;;;;;;26.67;23.33;;;;;9.47;55.56;103243.19;4977348;28;45392;-80
2022/01/23 03:27:52;;;;;;;;;32.00;27.33;;;;;9.30;55.55;103193.47;4977180;28;45385;-81
2022/01/23 03:30:20;;;;;;;;;19.67;19.00;;;;;9.45;55.38;103227.19;4976888;28;45842;-80
2022/01/23 03:32:48;;;;;;;;;29.00;24.33;;;;;9.33;55.58;103197.91;4977208;28;45387;-80
2022/01/23 03:35:16;;;;;;;;;34.33;28.33;;;;;9.48;55.85;103220.97;4976890;28;45548;-81
2022/01/23 03:37:41;;;;;;;;;29.67;27.67;;;;;9.23;55.91;103181.03;4977276;28;45504;-80
2022/01/23 03:40:08;;;;;;;;;32.33;28.67;;;;;9.47;55.99;103227.19;4976727;28;46087;-80
2022/01/23 03:42:36;;;;;;;;;27.33;24.33;;;;;9.49;55.97;103236.09;4975368;28;45532;-81
2022/01/23 03:50:19;;;;;;;;;30.67;25.00;;;;;9.49;56.28;103230.75;4975502;28;46618;-80
2022/01/23 03:52:44;;;;;;;;;27.67;22.67;;;;;9.33;56.04;103197.91;4976484;28;45456;-80
2022/01/23 03:55:10;;;;;;;;;30.67;25.33;;;;;9.41;55.90;103211.22;4976689;28;45412;-80
2022/01/23 03:57:36;;;;;;;;;31.67;27.00;;;;;9.23;55.88;103181.03;4977153;28;45507;-80
2022/01/23 04:00:02;;;;;;;;;27.00;25.00;;;;;9.46;56.15;103226.31;4959375;28;47324;-80
2022/01/23 04:02:27;;;;;;;;;25.67;19.67;;;;;9.09;55.78;103159.75;4976157;28;45309;-81
2022/01/23 04:04:53;;;;;;;;;23.67;20.33;;;;;9.24;56.11;103188.13;4976350;28;45530;-80
2022/01/23 04:07:25;;;;;;;;;27.67;21.33;;;;;9.42;55.55;103215.66;4976766;28;45520;-80
2022/01/23 04:09:51;;;;;;;;;20.33;19.33;;;;;9.41;55.99;103213.88;4958500;28;46442;-80
2022/01/23 04:12:37;;;;;;;;;21.67;21.67;;;;;9.39;55.99;103213.91;4976137;28;45379;-81
2022/01/23 04:15:16;;;;;;;;;24.67;18.33;;;;;9.14;56.24;103173.06;4957676;28;45405;-80
2022/01/23 04:34:25;;;;;;;;;25.67;25.33;;;;;9.33;56.39;103216.53;4979328;28;45457;-80
2022/01/23 05:01:26;;;;;;;;;23.33;19.33;;;;;9.10;56.48;103195.22;4979936;28;45634;-80
2022/01/23 05:06:59;;;;;;;;;24.00;21.00;;;;;9.27;56.72;103217.44;4978996;28;45385;-80
2022/01/23 05:09:24;;;;;;;;;23.33;22.67;;;;;9.22;56.58;103218.28;4964962;28;45476;-80
2022/01/23 05:11:58;;;;;;;;;22.00;20.33;;;;;8.99;56.48;103178.34;4979018;28;45595;-80
2022/01/23 05:14:37;;;;;;;;;23.33;20.33;;;;;9.24;56.32;103217.41;4979203;28;46091;-80
2022/01/23 05:17:04;;;;;;;;;25.67;20.33;;;;;9.02;56.49;103175.69;4979316;28;45457;-80
2022/01/23 05:19:32;;;;;;;;;22.00;16.00;;;;;9.26;56.07;103217.41;4979322;28;45449;-80
2022/01/23 05:24:35;;;;;;;;;24.00;21.50;;;;;9.11;56.11;103204.06;4979092;28;46037;-80
2022/01/23 05:27:02;;;;;;;;;21.00;20.00;;;;;9.25;55.97;103223.63;4961081;28;45376;-80
2022/01/23 05:29:28;;;;;;;;;24.00;21.33;;;;;8.99;56.02;103184.56;4978486;28;45520;-80
2022/01/23 05:31:53;;;;;;;;;24.67;22.00;;;;;8.93;55.86;103173.91;4978446;28;45365;-80
2022/01/23 05:34:23;;;;;;;;;30.33;25.67;;;;;9.18;55.82;103224.50;4978297;28;45440;-80
2022/01/23 05:36:49;;;;;;;;;26.33;21.00;;;;;9.13;56.16;103207.63;4977669;28;45341;-80
2022/01/23 05:39:18;;;;;;;;;26.67;23.67;;;;;9.17;55.89;103217.41;4977643;28;45513;-80
2022/01/23 05:41:43;;;;;;;;;27.00;22.33;;;;;9.22;55.74;103227.16;4959142;28;45647;-80
2022/01/23 05:44:09;;;;;;;;;23.33;22.00;;;;;9.05;55.59;103202.28;4978201;28;45437;-80
2022/01/23 05:46:34;;;;;;;;;26.00;22.33;;;;;8.97;55.87;103193.44;4978088;28;45504;-79
2022/01/23 05:48:59;;;;;;;;;29.00;25.00;;;;;9.14;55.83;103220.06;4978580;28;45649;-79
2022/01/23 05:51:25;;;;;;;;;30.00;25.75;;;;;9.08;56.11;103210.28;4978436;28;45396;-80
2022/01/23 05:53:50;;;;;;;;;27.67;24.00;;;;;9.16;55.79;103223.63;4978019;28;45478;-80
2022/01/23 05:56:16;;;;;;;;;30.33;25.33;;;;;8.85;56.25;103165.03;4978544;28;45393;-79
2022/01/23 05:58:42;;;;;;;;;32.00;28.00;;;;;8.82;55.95;103171.19;4978651;28;45450;-79
2022/01/23 06:01:08;;;;;;;;;27.33;23.67;;;;;9.15;55.91;103224.47;4978374;28;45717;-79
2022/01/23 06:03:33;;;;;;;;;36.00;29.33;;;;;9.13;55.80;103229.81;4978244;28;46043;-79
2022/01/23 06:05:59;;;;;;;;;22.00;21.67;;;;;8.90;56.11;103189.84;4977384;28;45376;-79
2022/01/23 06:08:25;;;;;;;;;27.33;24.00;;;;;8.80;56.20;103174.75;4978424;28;45559;-79
2022/01/23 06:10:55;;;;;;;;;25.00;22.00;;;;;9.14;55.90;103233.38;4958902;28;45374;-79
2022/01/23 06:13:22;;;;;;;;;26.00;21.33;;;;;9.15;55.41;103230.69;4958554;28;45363;-79
2022/01/23 06:15:47;;;;;;;;;27.33;23.00;;;;;9.16;55.61;103242.25;4958394;28;45524;-79
2022/01/23 06:18:13;;;;;;;;;26.00;20.67;;;;;8.93;55.35;103200.50;4960867;28;45385;-79
2022/01/23 06:20:38;;;;;;;;;28.33;26.33;;;;;9.13;55.24;103226.25;4977951;28;45334;-79
2022/01/23 06:23:03;;;;;;;;;28.33;21.33;;;;;9.19;55.43;103237.81;4977410;28;46100;-79
2022/01/23 06:25:33;;;;;;;;;26.33;26.00;;;;;8.98;55.71;103196.06;4977788;28;45393;-79
2022/01/23 06:28:00;;;;;;;;;19.00;18.00;;;;;9.27;55.26;103236.06;4976918;28;45331;-80
2022/01/23 06:30:26;;;;;;;;;21.00;18.00;;;;;9.29;55.33;103231.63;4978505;28;45449;-80
2022/01/23 06:32:51;;;;;;;;;21.33;21.00;;;;;9.01;55.29;103188.13;4977293;28;45525;-79
2022/01/23 06:35:17;;;;;;;;;22.00;21.67;;;;;9.14;55.20;103196.13;4959327;28;45635;-79
2022/01/23 06:37:42;;;;;;;;;20.67;20.67;;;;;9.30;55.39;103232.50;4977867;28;45494;-79
2022/01/23 06:40:08;;;;;;;;;22.33;21.00;;;;;9.29;55.13;103238.69;4976592;28;45495;-79
2022/01/23 06:42:33;;;;;;;;;21.00;16.33;;;;;9.02;55.22;103202.31;4977461;28;46033;-79
2022/01/23 06:44:59;;;;;;;;;14.00;14.00;;;;;9.01;54.97;103188.13;4977547;28;46580;-80
2022/01/23 06:47:25;;;;;;;;;23.00;18.33;;;;;9.29;55.08;103228.06;4977669;28;45500;-79
2022/01/23 06:49:50;;;;;;;;;23.00;18.33;;;;;9.33;54.62;103234.28;4977115;28;45587;-79
2022/01/23 06:52:16;;;;;;;;;18.67;15.67;;;;;9.16;54.49;103194.34;4976986;28;45384;-79
2022/01/23 06:54:41;;;;;;;;;14.67;14.00;;;;;9.16;54.03;103197.88;4977691;28;45543;-79
2022/01/23 06:57:07;;;;;;;;;20.67;15.33;;;;;9.00;54.07;103174.81;4977265;28;45484;-79
2022/01/23 06:59:32;;;;;;;;;20.67;19.00;;;;;9.36;54.08;103237.81;4977932;28;45460;-79
2022/01/23 07:01:58;;;;;;;;;19.00;15.67;;;;;9.19;54.38;103219.16;4977187;28;45901;-79
2022/01/23 07:04:23;;;;;;;;;17.67;15.00;;;;;9.25;54.38;103226.31;4976984;28;45636;-80
2022/01/23 07:06:49;;;;;;;;;19.67;13.00;;;;;9.14;54.07;103207.63;4977190;28;45373;-79
2022/01/23 07:09:14;;;;;;;;;16.00;16.00;;;;;9.33;54.42;103243.16;4959768;28;45405;-79
2022/01/23 07:11:39;;;;;;;;;21.33;18.33;;;;;9.22;54.09;103226.28;4976981;28;47875;-80
2022/01/23 07:14:05;;;;;;;;;19.67;14.67;;;;;9.35;54.43;103252.03;4976899;28;47807;-80
2022/01/23 07:16:31;;;;;;;;;17.00;16.00;;;;;9.36;54.32;103251.13;4976481;28;45556;-79
2022/01/23 07:18:56;;;;;;;;;21.67;19.67;;;;;9.22;54.64;103216.50;4976826;28;45639;-79
2022/01/23 07:21:21;;;;;;;;;15.33;15.00;;;;;9.15;54.44;103200.53;4976640;28;45805;-80
2022/01/23 07:23:50;;;;;;;;;16.33;13.33;;;;;9.31;54.29;103234.28;4976738;28;45597;-79
2022/01/23 07:26:18;;;;;;;;;11.67;11.67;;;;;9.28;54.36;103228.97;4977238;28;45330;-80
2022/01/23 07:28:45;;;;;;;;;20.00;18.33;;;;;9.41;54.67;103248.47;4977111;28;45476;-79
2022/01/23 07:31:11;;;;;;;;;14.67;13.67;;;;;9.17;54.67;103206.75;4977063;28;45491;-80
2022/01/23 07:33:36;;;;;;;;;18.50;17.00;;;;;9.15;54.56;103205.88;4976474;28;45420;-80
2022/01/23 07:36:03;;;;;;;;;16.00;13.67;;;;;9.11;54.68;103209.38;4977267;28;45511;-80
2022/01/23 07:38:30;;;;;;;;;17.33;16.33;;;;;9.33;54.81;103247.59;4977364;28;45464;-80
2022/01/23 07:40:55;;;;;;;;;15.00;15.00;;;;;9.33;55.18;103234.28;4976182;28;46586;-79
2022/01/23 07:43:20;;;;;;;;;21.67;16.33;;;;;9.36;54.46;103244.94;4976751;28;45504;-80
2022/01/23 07:45:46;;;;;;;;;19.00;17.00;;;;;9.14;55.05;103206.75;4977177;28;45349;-80
2022/01/23 07:48:11;;;;;;;;;15.33;13.00;;;;;9.19;54.57;103215.63;4976529;28;45426;-79
2022/01/23 07:50:37;;;;;;;;;14.67;13.33;;;;;9.32;54.43;103236.06;4977046;28;45885;-79
2022/01/23 07:53:04;;;;;;;;;13.33;12.33;;;;;9.31;54.39;103252.91;4979303;28;45648;-80
2022/01/23 07:55:30;;;;;;;;;12.67;12.67;;;;;9.27;54.56;103235.16;4980042;28;45425;-80
2022/01/23 07:58:02;;;;;;;;;18.67;13.33;;;;;9.22;54.46;103223.59;4978799;28;45490;-81
2022/01/23 08:00:28;;;;;;;;;14.00;12.33;;;;;9.37;54.07;103247.59;4979248;28;46045;-81
2022/01/23 08:02:53;;;;;;;;;13.67;12.67;;;;;9.18;54.28;103233.38;4961201;28;45592;-81
2022/01/23 08:05:19;;;;;;;;;16.00;14.67;;;;;9.39;54.53;103266.22;4979578;28;47012;-82
2022/01/23 08:07:44;;;;;;;;;47.00;34.25;;;;;9.02;54.30;103207.63;4979675;28;47713;-81
2022/01/23 08:10:10;;;;;;;;;10.00;10.00;;;;;9.18;53.91;103236.03;4979627;28;45979;-81
2022/01/23 08:12:35;;;;;;;;;17.33;14.33;;;;;9.36;54.06;103275.09;4974792;28;45599;-81
2022/01/23 08:15:03;;;;;;;;;15.00;14.00;;;;;9.36;53.90;103280.41;4980238;28;45302;-81
2022/01/23 08:17:29;;;;;;;;;12.67;12.00;;;;;9.14;54.18;103236.91;4979622;28;45453;-81
2022/01/23 08:19:56;;;;;;;;;11.00;9.00;;;;;9.36;53.96;103274.19;4979364;28;45473;-81
2022/01/23 08:22:23;;;;;;;;;13.00;13.00;;;;;9.15;54.03;103249.31;4979196;28;45886;-81
2022/01/23 08:24:50;;;;;;;;;15.67;12.67;;;;;9.22;54.01;103250.22;4979624;28;45833;-81
2022/01/23 08:27:16;;;;;;;;;12.67;12.33;;;;;9.38;54.24;103277.75;4978246;28;45575;-81
2022/01/23 08:29:43;;;;;;;;;20.67;18.00;;;;;9.37;54.38;103282.22;4978091;28;46433;-81
2022/01/23 08:32:09;;;;;;;;;18.00;16.00;;;;;9.37;54.32;103282.22;4979141;28;45380;-81
2022/01/23 08:34:35;;;;;;;;;12.33;11.67;;;;;9.38;54.29;103288.41;4961020;28;45534;-81
2022/01/23 08:37:02;;;;;;;;;17.33;15.67;;;;;9.37;54.20;103287.53;4980432;28;45431;-80
2022/01/23 08:39:30;;;;;;;;;20.00;19.00;;;;;9.19;54.04;103255.53;4978467;28;46441;-80
2022/01/23 08:41:55;;;;;;;;;16.33;14.33;;;;;9.28;54.41;103280.41;4979490;28;45366;-81
2022/01/23 08:44:23;;;;;;;;;18.33;14.33;;;;;9.39;53.86;103283.09;4978641;28;45444;-80
2022/01/23 08:46:49;;;;;;;;;18.33;14.67;;;;;9.40;54.00;103279.53;4979339;28;45416;-81
2022/01/23 08:49:19;;;;;;;;;19.67;16.00;;;;;9.00;54.22;103222.69;4978965;28;46050;-81
2022/01/23 08:51:46;;;;;;;;;21.33;19.00;;;;;9.34;54.04;103278.63;4978518;28;45435;-80
2022/01/23 08:54:11;;;;;;;;;19.00;16.67;;;;;9.25;54.32;103253.78;4979362;28;45495;-81
2022/01/23 08:56:37;;;;;;;;;29.00;20.33;;;;;9.33;54.22;103267.09;4979421;28;45350;-80
2022/01/23 08:59:03;;;;;;;;;23.67;21.00;;;;;9.30;54.32;103254.69;4978287;28;45345;-81
2022/01/23 09:01:29;;;;;;;;;19.00;19.00;;;;;9.39;54.25;103280.44;4975759;28;45484;-80
2022/01/23 09:03:54;;;;;;;;;21.00;18.33;;;;;9.34;54.37;103275.97;4959431;28;45506;-81
2022/01/23 09:06:20;;;;;;;;;20.00;20.00;;;;;9.16;53.70;103252.88;4976958;28;46568;-81
2022/01/23 09:08:46;;;;;;;;;23.67;21.00;;;;;9.20;53.84;103252.91;4976486;28;46572;-81
2022/01/23 09:11:24;;;;;;;;;23.67;22.67;;;;;9.16;53.53;103236.94;4977091;28;45901;-80
2022/01/23 09:14:06;;;;;;;;;25.00;23.00;;;;;9.31;53.72;103268.88;4978380;28;45477;-81
2022/01/23 09:16:39;;;;;;;;;26.00;25.00;;;;;9.20;53.43;103246.66;4975174;28;45437;-80
2022/01/23 09:19:05;;;;;;;;;21.67;20.67;;;;;9.40;53.79;103282.19;4976037;28;45539;-80
2022/01/23 09:21:31;;;;;;;;;27.00;20.67;;;;;9.35;53.29;103272.44;4942982;28;46028;-80
2022/01/23 09:23:58;;;;;;;;;28.00;24.33;;;;;9.45;53.47;103283.09;4976815;28;45601;-81
2022/01/23 09:26:24;;;;;;;;;31.67;20.67;;;;;9.23;53.48;103238.72;4974975;28;45373;-81
2022/01/23 09:28:55;;;;;;;;;27.67;23.00;;;;;9.47;53.65;103285.78;4974364;28;45531;-80
2022/01/23 09:31:48;;;;;;;;;25.67;21.33;;;;;9.46;53.23;103284.00;4976897;28;45475;-80
2022/01/23 09:34:14;;;;;;;;;27.67;24.33;;;;;9.28;53.66;103252.91;4964360;28;45779;-80
2022/01/23 09:36:39;;;;;;;;;24.67;24.67;;;;;9.44;53.87;103281.34;4975891;28;46426;-81
2022/01/23 09:39:05;;;;;;;;;23.00;22.00;;;;;9.42;53.26;103283.09;4976073;28;50414;-80
2022/01/23 09:41:31;;;;;;;;;26.00;24.00;;;;;9.34;53.28;103284.88;4975455;28;46355;-81
2022/01/23 09:44:00;;;;;;;;;23.00;20.33;;;;;9.21;53.55;103267.97;4958305;28;45560;-81
2022/01/23 09:46:26;;;;;;;;;20.67;18.67;;;;;9.39;53.68;103292.84;4978427;28;45745;-80
2022/01/23 09:48:52;;;;;;;;;19.00;17.33;;;;;9.27;53.32;103283.03;4975023;28;46467;-80
2022/01/23 09:51:21;;;;;;;;;14.00;13.33;;;;;9.30;53.66;103297.25;4971372;28;45923;-80
2022/01/23 09:53:51;;;;;;;;;19.33;17.33;;;;;9.24;53.64;103301.69;4977856;28;45474;-80
2022/01/23 09:56:24;;;;;;;;;20.33;17.00;;;;;9.22;53.29;103287.47;4972339;28;45653;-81
2022/01/23 09:58:50;;;;;;;;;28.67;20.67;;;;;9.16;53.73;103282.16;4975350;28;46039;-80
2022/01/23 10:01:16;;;;;;;;;26.67;17.00;;;;;8.97;53.65;103250.16;4974322;28;45566;-80
2022/01/23 10:03:42;;;;;;;;;18.67;18.00;;;;;9.21;53.67;103291.03;4976027;28;45484;-78
2022/01/23 10:06:08;;;;;;;;;23.67;18.67;;;;;9.06;53.60;103266.16;4973173;28;45599;-80
2022/01/23 10:08:35;;;;;;;;;22.00;21.67;;;;;9.05;53.84;103264.38;4987301;28;46031;-82
2022/01/23 10:11:04;;;;;;;;;19.33;19.33;;;;;9.14;53.56;103271.50;4960855;28;45431;-81
2022/01/23 10:13:30;;;;;;;;;17.00;16.33;;;;;9.16;53.25;103276.84;4977758;28;45413;-80
2022/01/23 10:15:55;;;;;;;;;22.00;20.00;;;;;9.26;53.43;103294.59;4977926;28;45535;-81
2022/01/23 10:18:21;;;;;;;;;23.67;18.67;;;;;8.92;53.45;103251.94;4978339;28;45388;-80
2022/01/23 10:20:47;;;;;;;;;17.00;16.00;;;;;8.97;53.85;103257.25;4977474;28;46059;-80
2022/01/23 10:23:14;;;;;;;;;24.67;19.00;;;;;9.22;53.76;103290.13;4977510;28;45459;-79
2022/01/23 10:25:41;;;;;;;;;27.33;22.67;;;;;9.28;53.84;103300.81;4976057;28;45520;-80
2022/01/23 10:28:10;;;;;;;;;21.00;18.00;;;;;9.30;53.43;103293.72;4975512;28;45921;-80
2022/01/23 10:30:44;;;;;;;;;28.67;21.33;;;;;9.09;53.67;103250.19;4973884;28;45715;-79
2022/01/23 10:33:16;;;;;;;;;21.67;20.00;;;;;9.37;53.59;103297.28;4974983;28;45539;-79
2022/01/23 10:36:03;;;;;;;;;19.67;19.00;;;;;9.36;53.47;103293.72;4975817;28;45852;-79
2022/01/23 10:38:53;;;;;;;;;24.33;21.33;;;;;9.25;53.67;103283.06;4973026;28;45452;-80
2022/01/23 10:49:49;;;;;;;;;14.00;14.00;;;;;9.29;53.37;103292.84;4977080;28;45500;-82
2022/01/23 10:52:29;;;;;;;;;18.33;15.33;;;;;8.94;53.45;103230.63;4976063;28;45506;-82
2022/01/23 10:54:54;;;;;;;;;18.67;16.00;;;;;9.13;53.83;103261.75;4973815;28;45472;-82
2022/01/23 10:57:19;;;;;;;;;17.33;14.33;;;;;9.13;53.37;103259.09;4979396;28;45587;-83
2022/01/23 10:59:51;;;;;;;;;13.33;12.33;;;;;9.33;53.93;103275.09;4975982;28;46320;-83
2022/01/23 11:02:23;;;;;;;;;21.00;14.00;;;;;9.30;53.75;103280.41;4975388;28;45636;-83
2022/01/23 11:04:55;;;;;;;;;22.00;15.67;;;;;9.32;53.65;103265.34;4976496;28;45398;-84
2022/01/23 11:07:22;;;;;;;;;24.33;18.00;;;;;9.18;53.62;103259.09;4976037;28;45493;-83
2022/01/23 11:09:55;;;;;;;;;18.33;13.67;;;;;9.11;53.89;103246.63;4975863;28;46069;-87
2022/01/23 11:17:59;;;;;;;;;18.33;16.33;;;;;9.25;53.75;103242.25;4971099;28;45318;-83
2022/01/23 11:20:32;;;;;;;;;26.33;22.67;;;;;9.42;53.87;103260.91;4981032;28;45763;-82
2022/01/23 11:23:10;;;;;;;;;24.00;20.67;;;;;9.40;53.74;103244.94;4976534;28;45587;-82
2022/01/23 11:25:36;;;;;;;;;22.33;18.00;;;;;9.45;53.81;103251.16;4970045;28;45456;-82
2022/01/23 11:28:03;;;;;;;;;21.67;18.33;;;;;9.44;53.93;103248.50;4979678;28;45466;-82
2022/01/23 11:30:41;;;;;;;;;20.67;17.67;;;;;9.45;53.81;103244.94;4977255;28;46179;-82
2022/01/23 11:33:12;;;;;;;;;18.00;16.00;;;;;9.44;53.67;103238.75;4962539;28;45433;-82
2022/01/23 11:35:38;;;;;;;;;20.00;18.33;;;;;9.27;53.69;103213.84;4990758;28;45373;-82
2022/01/23 11:38:10;;;;;;;;;26.00;21.00;;;;;9.22;53.88;103212.97;4979885;28;45726;-83
2022/01/23 11:50:35;;;;;;;;;20.33;17.33;;;;;9.30;54.00;103227.19;4978071;28;45606;-84
2022/01/23 11:55:32;;;;;;;;;24.33;17.67;;;;;9.34;54.23;103230.72;4978234;28;45456;-82
2022/01/23 11:57:59;;;;;;;;;21.33;18.33;;;;;8.95;53.84;103163.28;4978210;28;45488;-82
2022/01/23 12:00:24;;;;;;;;;21.00;17.67;;;;;9.35;54.13;103225.41;4978758;28;45417;-82
2022/01/23 12:03:06;;;;;;;;;20.33;19.67;;;;;9.15;53.56;103192.56;4977727;28;45976;-81
2022/01/23 12:05:32;;;;;;;;;17.00;16.00;;;;;8.99;53.50;103160.63;4977903;28;45518;-82
2022/01/23 12:08:21;;;;;;;;;16.67;15.33;;;;;9.28;53.61;103215.66;4978326;28;45683;-82
2022/01/23 12:16:23;;;;;;;;;19.00;13.67;;;;;9.05;53.70;103151.75;4977903;28;45459;-82
2022/01/23 12:17:02;;;;;;;;;17.33;15.67;;;;;9.39;53.50;103211.22;4961607;28;45583;-84
2022/01/23 12:19:49;;;;;;;;;16.00;13.00;;;;;9.39;53.58;103207.66;4979840;28;45472;-84
2022/01/23 12:22:27;;;;;;;;;17.00;14.67;;;;;8.93;53.59;103143.75;4978446;28;45408;-82
2022/01/23 12:24:56;;;;;;;;;16.00;14.00;;;;;8.69;52.85;103102.06;4973275;28;45896;-84
2022/01/23 12:27:26;;;;;;;;;17.33;14.33;;;;;8.87;52.90;103120.69;4979420;28;45492;-84
2022/01/23 12:30:08;;;;;;;;;13.00;10.33;;;;;9.24;52.89;103176.59;4961918;28;45414;-85
2022/01/23 12:32:34;;;;;;;;;14.00;10.67;;;;;8.48;52.89;103055.06;4979351;28;45398;-84
2022/01/23 12:35:03;;;;;;;;;15.67;13.00;;;;;9.02;52.86;103131.34;4962968;28;47359;-84
2022/01/23 12:37:55;;;;;;;;;18.00;15.33;;;;;9.40;52.67;103193.47;4961846;28;45507;-86
2022/01/23 12:40:28;;;;;;;;;13.33;13.33;;;;;8.64;52.62;103056.88;4932249;28;45480;-87
2022/01/23 12:43:10;;;;;;;;;15.00;13.00;;;;;8.45;52.85;103016.97;4978637;28;45420;-85
2022/01/23 12:45:46;;;;;;;;;15.33;14.67;;;;;8.44;52.56;103012.50;4979147;28;46110;-85
2022/01/23 12:48:24;;;;;;;;;13.00;13.00;;;;;8.91;52.59;103077.25;4978898;28;45492;-85
2022/01/23 12:50:50;;;;;;;;;16.67;13.67;;;;;9.04;52.21;103102.13;4977591;28;45397;-85
2022/01/23 12:53:15;;;;;;;;;14.67;14.33;;;;;8.76;52.40;103056.00;4963325;28;45438;-85
2022/01/23 12:56:08;;;;;;;;;12.00;12.00;;;;;8.94;52.56;103087.00;4978052;28;46207;-83
2022/01/23 12:58:38;;;;;;;;;18.00;15.67;;;;;8.95;52.47;103092.34;4975393;28;45812;-84
2022/01/23 13:01:11;;;;;;;;;18.67;15.00;;;;;9.26;52.61;103137.59;4959769;28;45457;-85
2022/01/23 13:03:38;;;;;;;;;15.00;11.33;;;;;9.26;52.75;103116.28;4959107;28;45604;-83
2022/01/23 13:06:07;;;;;;;;;15.00;11.67;;;;;9.25;52.48;103104.78;4958227;28;46995;-84
2022/01/23 13:08:36;;;;;;;;;16.67;15.00;;;;;9.25;52.46;103085.25;4978773;28;45428;-83
2022/01/23 13:13:38;;;;;;;;;28.00;21.00;;;;;9.47;52.16;103116.28;4978946;28;45852;-83
2022/01/23 13:32:33;;;;;;;;;17.33;14.33;;;;;9.58;52.36;103116.28;4975688;28;45645;-84
2022/01/23 13:35:11;;;;;;;;;20.00;20.00;;;;;9.60;52.19;103116.25;4961414;28;45639;-84
2022/01/23 13:37:43;;;;;;;;;19.67;19.67;;;;;9.60;52.44;103116.25;4983327;28;46670;-83
2022/01/23 13:40:25;;;;;;;;;25.33;18.00;;;;;9.49;52.71;103095.88;4983367;28;45437;-83
2022/01/23 13:53:27;;;;;;;;;20.67;20.00;;;;;9.36;52.26;103024.91;4980794;28;45433;-86
2022/01/23 13:58:41;;;;;;;;;26.33;24.00;;;;;9.72;52.86;103073.66;4960645;28;45507;-92
2022/01/23 14:04:47;;;;;;;;;22.33;22.00;;;;;8.63;52.57;102885.81;4951464;28;45484;-96
2022/01/23 14:07:23;;;;;;;;;20.67;19.00;;;;;8.55;52.63;102876.09;4941223;28;45438;-91
2022/01/23 14:09:53;;;;;;;;;26.33;23.33;;;;;9.76;52.79;103077.19;4962177;28;47295;-92
2022/01/23 14:12:20;;;;;;;;;31.67;25.33;;;;;9.79;52.44;103087.84;4979633;28;45460;-93
2022/01/23 14:18:20;;;;;;;;;31.50;30.50;;;;;8.96;52.58;102907.03;4981707;28;45183;-92
2022/01/23 14:20:58;;;;;;;;;36.75;30.75;;;;;8.32;52.88;102788.41;4979520;28;46012;-93
2022/01/23 14:23:24;;;;;;;;;28.67;26.33;;;;;8.83;52.42;102869.84;4978593;28;45502;-88
2022/01/23 14:25:59;;;;;;;;;37.25;30.25;;;;;9.26;52.48;102944.22;4975107;28;45351;-91
2022/01/23 14:28:40;;;;;;;;;29.00;25.00;;;;;8.77;51.96;102879.59;4962211;28;45461;-92
2022/01/23 14:31:16;;;;;;;;;23.33;19.33;;;;;8.88;52.02;102884.00;4976565;28;45481;-88
2022/01/23 14:33:42;;;;;;;;;28.00;21.33;;;;;8.96;52.27;102899.94;4971401;28;45429;-87
2022/01/23 14:36:24;;;;;;;;;23.67;21.33;;;;;9.35;52.64;102961.94;4976384;28;45413;-87
2022/01/23 14:39:11;;;;;;;;;24.67;21.67;;;;;9.38;52.58;102971.69;4977332;28;45466;-89
2022/01/23 14:41:42;;;;;;;;;28.00;22.67;;;;;9.60;52.85;103015.09;4960153;28;47251;-90
2022/01/23 14:44:16;;;;;;;;;33.33;30.67;;;;;8.75;52.06;102853.00;4960926;28;45280;-88
2022/01/23 14:46:45;;;;;;;;;31.67;27.00;;;;;9.68;52.56;103008.84;4976621;28;45318;-90
2022/01/23 14:49:26;;;;;;;;;21.33;20.33;;;;;9.89;52.20;103041.63;4960164;28;45462;-91
2022/01/23 14:51:54;;;;;;;;;27.00;24.00;;;;;9.93;51.94;103046.06;4976831;28;46302;-89
2022/01/23 14:58:18;;;;;;;;;29.33;24.67;;;;;9.66;52.01;102976.00;4968884;28;45357;-91
2022/01/23 15:00:41;;;;;;;;;29.33;25.33;;;;;8.54;52.00;102807.88;4961603;28;45570;-90
2022/01/23 15:03:13;;;;;;;;;30.33;24.67;;;;;8.53;52.24;102811.44;4974982;28;45610;-93
2022/01/23 15:05:46;;;;;;;;;31.00;25.00;;;;;8.85;51.98;102851.25;4976149;28;45467;-91
2022/01/23 15:08:13;;;;;;;;;29.33;27.00;;;;;9.40;51.91;102946.84;4958189;28;45497;-90
2022/01/23 15:10:42;;;;;;;;;35.00;31.50;;;;;9.41;52.28;102951.28;4975230;28;45715;-90